Terminal Aerodrome Forecast
Issued by NWS El Paso, TX

Home | Current Version | Previous Version | Text Only | Print | Product List | Glossary On
Versions: 1 2 3 4 5 6 7 8 9 10 11 12 13 14 15 16 17
000
FTUS44 KEPZ 032339
TAFELP
TAF
KELP 032339Z 0400/0424 03010KT P6SM VCTS SCT060CB BKN120
      TEMPO 0400/0403 VRB25G40KT 2SM TSRA BKN050CB OVC100
     FM040900 23006KT P6SM SCT100 SCT250
     FM042000 VRB06KT P6SM VCTS SCT070CB SCT200=

USA.gov is the U.S. government's official web portal to all federal, state and local government web resources and services.